sensor_id;sensor_type;location;lat;lon;timestamp;pressure;altitude;pressure_sealevel;temperature;humidity
60465;BME280;46314;52.392;9.758;2023-12-20T00:00:21;100396.19;;;8.93;100.00
60465;BME280;46314;52.392;9.758;2023-12-20T00:02:48;100399.13;;;9.02;100.00
60465;BME280;46314;52.392;9.758;2023-12-20T00:05:14;100391.34;;;9.04;100.00
60465;BME280;46314;52.392;9.758;2023-12-20T00:07:41;100404.19;;;8.95;100.00
60465;BME280;46314;52.392;9.758;2023-12-20T00:10:08;100389.00;;;8.73;100.00
60465;BME280;46314;52.392;9.758;2023-12-20T00:12:36;100400.56;;;8.75;100.00
60465;BME280;46314;52.392;9.758;2023-12-20T00:15:03;100412.09;;;8.82;100.00
60465;BME280;46314;52.392;9.758;2023-12-20T00:17:30;100406.22;;;8.65;100.00
60465;BME280;46314;52.392;9.758;2023-12-20T00:19:57;100408.63;;;8.96;100.00
60465;BME280;46314;52.392;9.758;2023-12-20T00:22:23;100403.63;;;8.49;100.00
60465;BME280;46314;52.392;9.758;2023-12-20T00:24:49;100414.13;;;8.23;100.00
60465;BME280;46314;52.392;9.758;2023-12-20T00:27:16;100416.69;;;8.44;100.00
60465;BME280;46314;52.392;9.758;2023-12-20T00:29:44;100416.00;;;8.57;100.00
60465;BME280;46314;52.392;9.758;2023-12-20T00:32:11;100416.66;;;8.73;100.00
60465;BME280;46314;52.392;9.758;2023-12-20T00:34:37;100419.00;;;8.85;100.00
60465;BME280;46314;52.392;9.758;2023-12-20T00:37:04;100434.22;;;8.58;100.00
60465;BME280;46314;52.392;9.758;2023-12-20T00:39:30;100431.44;;;8.34;100.00
60465;BME280;46314;52.392;9.758;2023-12-20T00:41:57;100421.53;;;8.28;100.00
60465;BME280;46314;52.392;9.758;2023-12-20T00:44:23;100421.25;;;8.59;100.00
60465;BME280;46314;52.392;9.758;2023-12-20T00:46:51;100432.88;;;8.56;100.00
60465;BME280;46314;52.392;9.758;2023-12-20T00:49:17;100427.31;;;8.61;100.00
60465;BME280;46314;52.392;9.758;2023-12-20T00:51:44;100430.66;;;8.82;100.00
60465;BME280;46314;52.392;9.758;2023-12-20T00:54:10;100422.81;;;8.65;100.00
60465;BME280;46314;52.392;9.758;2023-12-20T00:56:37;100416.88;;;8.52;100.00
60465;BME280;46314;52.392;9.758;2023-12-20T00:59:03;100422.84;;;8.06;100.00
60465;BME280;46314;52.392;9.758;2023-12-20T01:01:30;100428.53;;;8.20;100.00
60465;BME280;46314;52.392;9.758;2023-12-20T01:03:57;100411.38;;;7.94;100.00
60465;BME280;46314;52.392;9.758;2023-12-20T01:06:24;100424.06;;;7.95;100.00
60465;BME280;46314;52.392;9.758;2023-12-20T01:08:50;100421.78;;;8.02;100.00
60465;BME280;46314;52.392;9.758;2023-12-20T01:11:17;100421.34;;;7.90;100.00
60465;BME280;46314;52.392;9.758;2023-12-20T01:13:43;100418.22;;;7.96;100.00
60465;BME280;46314;52.392;9.758;2023-12-20T01:16:10;100424.06;;;7.95;100.00
60465;BME280;46314;52.392;9.758;2023-12-20T01:18:37;100419.13;;;7.92;100.00
60465;BME280;46314;52.392;9.758;2023-12-20T01:21:05;100413.75;;;7.71;100.00
60465;BME280;46314;52.392;9.758;2023-12-20T01:23:32;100415.88;;;7.85;100.00
60465;BME280;46314;52.392;9.758;2023-12-20T01:25:58;100415.00;;;8.19;100.00
60465;BME280;46314;52.392;9.758;2023-12-20T01:28:25;100423.09;;;8.10;100.00
60465;BME280;46314;52.392;9.758;2023-12-20T01:30:51;100419.91;;;8.27;100.00
60465;BME280;46314;52.392;9.758;2023-12-20T01:33:18;100421.16;;;7.81;100.00
60465;BME280;46314;52.392;9.758;2023-12-20T01:35:44;100424.38;;;8.18;100.00
60465;BME280;46314;52.392;9.758;2023-12-20T01:38:12;100426.19;;;8.03;100.00
60465;BME280;46314;52.392;9.758;2023-12-20T01:40:39;100423.72;;;8.31;100.00
60465;BME280;46314;52.392;9.758;2023-12-20T01:43:07;100435.47;;;8.42;100.00
60465;BME280;46314;52.392;9.758;2023-12-20T01:45:34;100434.88;;;8.21;100.00
60465;BME280;46314;52.392;9.758;2023-12-20T01:48:02;100433.75;;;7.92;100.00
60465;BME280;46314;52.392;9.758;2023-12-20T01:50:30;100440.09;;;7.58;100.00
60465;BME280;46314;52.392;9.758;2023-12-20T01:52:59;100430.38;;;7.27;100.00
60465;BME280;46314;52.392;9.758;2023-12-20T01:55:31;100428.09;;;7.73;100.00
60465;BME280;46314;52.392;9.758;2023-12-20T01:57:59;100438.53;;;7.42;100.00
60465;BME280;46314;52.392;9.758;2023-12-20T02:00:26;100433.44;;;7.59;100.00
60465;BME280;46314;52.392;9.758;2023-12-20T02:02:54;100432.75;;;7.78;100.00
60465;BME280;46314;52.392;9.758;2023-12-20T02:05:20;100431.03;;;7.53;100.00
60465;BME280;46314;52.392;9.758;2023-12-20T02:07:47;100442.09;;;7.82;100.00
60465;BME280;46314;52.392;9.758;2023-12-20T02:10:15;100438.75;;;7.51;100.00
60465;BME280;46314;52.392;9.758;2023-12-20T02:12:43;100429.13;;;7.83;100.00
60465;BME280;46314;52.392;9.758;2023-12-20T02:15:10;100429.78;;;7.69;100.00
60465;BME280;46314;52.392;9.758;2023-12-20T02:17:38;100419.53;;;7.75;100.00
60465;BME280;46314;52.392;9.758;2023-12-20T02:20:06;100416.91;;;7.54;100.00
60465;BME280;46314;52.392;9.758;2023-12-20T02:22:34;100409.03;;;8.06;100.00
60465;BME280;46314;52.392;9.758;2023-12-20T02:25:01;100401.41;;;7.93;100.00
60465;BME280;46314;52.392;9.758;2023-12-20T02:27:27;100395.47;;;7.46;100.00
60465;BME280;46314;52.392;9.758;2023-12-20T02:29:55;100401.41;;;7.24;100.00
60465;BME280;46314;52.392;9.758;2023-12-20T02:32:22;100403.88;;;7.65;100.00
60465;BME280;46314;52.392;9.758;2023-12-20T02:34:50;100403.25;;;7.73;100.00
60465;BME280;46314;52.392;9.758;2023-12-20T02:37:17;100397.22;;;7.66;100.00
60465;BME280;46314;52.392;9.758;2023-12-20T02:39:45;100408.69;;;7.05;100.00
60465;BME280;46314;52.392;9.758;2023-12-20T02:42:11;100391.69;;;7.37;100.00
60465;BME280;46314;52.392;9.758;2023-12-20T02:44:38;100403.00;;;7.35;100.00
60465;BME280;46314;52.392;9.758;2023-12-20T02:47:04;100411.31;;;7.30;100.00
60465;BME280;46314;52.392;9.758;2023-12-20T02:49:31;100407.75;;;7.25;100.00
60465;BME280;46314;52.392;9.758;2023-12-20T02:51:57;100407.59;;;7.06;100.00
60465;BME280;46314;52.392;9.758;2023-12-20T02:54:24;100395.25;;;7.37;100.00
60465;BME280;46314;52.392;9.758;2023-12-20T02:56:52;100379.09;;;7.60;100.00
60465;BME280;46314;52.392;9.758;2023-12-20T02:59:18;100390.94;;;7.21;100.00
60465;BME280;46314;52.392;9.758;2023-12-20T03:01:45;100376.44;;;7.45;100.00
60465;BME280;46314;52.392;9.758;2023-12-20T03:04:12;100385.94;;;6.73;100.00
60465;BME280;46314;52.392;9.758;2023-12-20T03:06:39;100390.16;;;7.10;100.00
60465;BME280;46314;52.392;9.758;2023-12-20T03:09:05;100394.66;;;6.20;100.00
60465;BME280;46314;52.392;9.758;2023-12-20T03:11:32;100384.09;;;7.13;100.00
60465;BME280;46314;52.392;9.758;2023-12-20T03:14:00;100379.69;;;6.57;100.00
60465;BME280;46314;52.392;9.758;2023-12-20T03:16:26;100367.88;;;6.52;100.00
60465;BME280;46314;52.392;9.758;2023-12-20T03:18:52;100372.81;;;6.55;100.00
60465;BME280;46314;52.392;9.758;2023-12-20T03:21:19;100365.13;;;7.01;100.00
60465;BME280;46314;52.392;9.758;2023-12-20T03:23:45;100356.75;;;6.72;100.00
60465;BME280;46314;52.392;9.758;2023-12-20T03:26:12;100353.91;;;7.32;100.00
60465;BME280;46314;52.392;9.758;2023-12-20T03:28:39;100354.00;;;7.17;100.00
60465;BME280;46314;52.392;9.758;2023-12-20T03:31:06;100347.78;;;7.41;100.00
60465;BME280;46314;52.392;9.758;2023-12-20T03:33:33;100340.78;;;7.14;100.00
60465;BME280;46314;52.392;9.758;2023-12-20T03:36:00;100342.03;;;7.66;100.00
60465;BME280;46314;52.392;9.758;2023-12-20T03:38:26;100338.25;;;7.23;100.00
60465;BME280;46314;52.392;9.758;2023-12-20T03:40:52;100337.00;;;7.05;100.00
60465;BME280;46314;52.392;9.758;2023-12-20T03:43:19;100332.97;;;7.26;100.00
60465;BME280;46314;52.392;9.758;2023-12-20T03:45:46;100339.81;;;7.34;100.00
60465;BME280;46314;52.392;9.758;2023-12-20T03:48:13;100327.94;;;7.33;100.00
60465;BME280;46314;52.392;9.758;2023-12-20T03:50:40;100331.66;;;7.18;100.00
60465;BME280;46314;52.392;9.758;2023-12-20T03:53:06;100319.63;;;7.04;100.00
60465;BME280;46314;52.392;9.758;2023-12-20T03:55:33;100328.72;;;7.05;100.00
60465;BME280;46314;52.392;9.758;2023-12-20T03:57:59;100330.47;;;6.90;100.00
60465;BME280;46314;52.392;9.758;2023-12-20T04:00:27;100318.75;;;6.64;100.00
60465;BME280;46314;52.392;9.758;2023-12-20T04:02:53;100328.50;;;6.96;100.00
60465;BME280;46314;52.392;9.758;2023-12-20T04:05:21;100340.44;;;6.81;100.00
60465;BME280;46314;52.392;9.758;2023-12-20T04:07:47;100333.72;;;6.97;100.00
60465;BME280;46314;52.392;9.758;2023-12-20T04:10:15;100327.59;;;7.45;100.00
60465;BME280;46314;52.392;9.758;2023-12-20T04:12:41;100327.66;;;7.69;100.00
60465;BME280;46314;52.392;9.758;2023-12-20T04:15:08;100331.34;;;7.25;100.00
60465;BME280;46314;52.392;9.758;2023-12-20T04:17:36;100329.19;;;7.17;100.00
60465;BME280;46314;52.392;9.758;2023-12-20T04:20:03;100328.00;;;7.28;100.00
60465;BME280;46314;52.392;9.758;2023-12-20T04:22:31;100328.88;;;7.24;100.00
60465;BME280;46314;52.392;9.758;2023-12-20T04:24:58;100327.78;;;7.54;100.00
60465;BME280;46314;52.392;9.758;2023-12-20T04:27:24;100320.31;;;7.25;100.00
60465;BME280;46314;52.392;9.758;2023-12-20T04:29:51;100324.09;;;6.95;100.00
60465;BME280;46314;52.392;9.758;2023-12-20T04:32:17;100312.81;;;7.31;100.00
60465;BME280;46314;52.392;9.758;2023-12-20T04:34:43;100311.56;;;7.47;100.00
60465;BME280;46314;52.392;9.758;2023-12-20T04:37:10;100310.94;;;7.21;100.00
60465;BME280;46314;52.392;9.758;2023-12-20T04:39:38;100308.78;;;7.18;100.00
60465;BME280;46314;52.392;9.758;2023-12-20T04:42:04;100309.38;;;7.10;100.00
60465;BME280;46314;52.392;9.758;2023-12-20T04:44:31;100303.56;;;7.46;100.00
60465;BME280;46314;52.392;9.758;2023-12-20T04:46:57;100292.16;;;7.28;100.00
60465;BME280;46314;52.392;9.758;2023-12-20T04:49:24;100301.25;;;7.58;100.00
60465;BME280;46314;52.392;9.758;2023-12-20T04:51:50;100300.25;;;7.14;100.00
60465;BME280;46314;52.392;9.758;2023-12-20T04:54:17;100302.53;;;7.07;100.00
60465;BME280;46314;52.392;9.758;2023-12-20T04:56:45;100307.13;;;7.17;100.00
60465;BME280;46314;52.392;9.758;2023-12-20T04:59:11;100309.72;;;7.37;100.00
60465;BME280;46314;52.392;9.758;2023-12-20T05:01:37;100313.19;;;7.53;100.00
60465;BME280;46314;52.392;9.758;2023-12-20T05:04:04;100300.72;;;7.27;100.00
60465;BME280;46314;52.392;9.758;2023-12-20T05:06:31;100305.31;;;7.36;100.00
60465;BME280;46314;52.392;9.758;2023-12-20T05:08:57;100291.78;;;7.35;100.00
60465;BME280;46314;52.392;9.758;2023-12-20T05:11:23;100289.97;;;7.84;100.00
60465;BME280;46314;52.392;9.758;2023-12-20T05:13:51;100295.13;;;7.37;100.00
60465;BME280;46314;52.392;9.758;2023-12-20T05:16:18;100295.59;;;7.44;100.00
60465;BME280;46314;52.392;9.758;2023-12-20T05:18:46;100298.31;;;7.15;100.00
60465;BME280;46314;52.392;9.758;2023-12-20T05:21:13;100302.91;;;7.59;100.00
60465;BME280;46314;52.392;9.758;2023-12-20T05:23:39;100300.75;;;7.51;100.00
60465;BME280;46314;52.392;9.758;2023-12-20T05:26:06;100310.00;;;7.36;100.00
60465;BME280;46314;52.392;9.758;2023-12-20T05:28:32;100306.94;;;7.43;100.00
60465;BME280;46314;52.392;9.758;2023-12-20T05:31:00;100295.00;;;7.47;100.00
60465;BME280;46314;52.392;9.758;2023-12-20T05:33:27;100292.50;;;6.77;100.00
60465;BME280;46314;52.392;9.758;2023-12-20T05:35:53;100293.53;;;7.26;100.00
60465;BME280;46314;52.392;9.758;2023-12-20T05:38:20;100290.03;;;7.15;100.00
60465;BME280;46314;52.392;9.758;2023-12-20T05:40:46;100286.06;;;7.26;100.00
60465;BME280;46314;52.392;9.758;2023-12-20T05:43:13;100293.22;;;7.32;100.00
60465;BME280;46314;52.392;9.758;2023-12-20T05:45:39;100282.75;;;7.29;100.00
60465;BME280;46314;52.392;9.758;2023-12-20T05:48:07;100290.06;;;7.73;100.00
60465;BME280;46314;52.392;9.758;2023-12-20T05:50:34;100303.63;;;7.06;100.00
60465;BME280;46314;52.392;9.758;2023-12-20T05:53:00;100297.81;;;7.08;100.00
60465;BME280;46314;52.392;9.758;2023-12-20T05:55:27;100300.88;;;7.41;100.00
60465;BME280;46314;52.392;9.758;2023-12-20T05:57:53;100283.00;;;6.98;100.00
60465;BME280;46314;52.392;9.758;2023-12-20T06:00:20;100294.47;;;7.16;100.00
60465;BME280;46314;52.392;9.758;2023-12-20T06:02:47;100299.06;;;7.26;100.00
60465;BME280;46314;52.392;9.758;2023-12-20T06:05:15;100302.13;;;7.19;100.00
60465;BME280;46314;52.392;9.758;2023-12-20T06:07:42;100295.84;;;7.48;100.00
60465;BME280;46314;52.392;9.758;2023-12-20T06:10:09;100298.47;;;7.58;100.00
60465;BME280;46314;52.392;9.758;2023-12-20T06:12:35;100285.63;;;7.14;100.00
60465;BME280;46314;52.392;9.758;2023-12-20T06:15:02;100289.16;;;7.54;100.00
60465;BME280;46314;52.392;9.758;2023-12-20T06:17:29;100298.34;;;7.10;100.00
60465;BME280;46314;52.392;9.758;2023-12-20T06:19:55;100296.41;;;7.10;100.00
60465;BME280;46314;52.392;9.758;2023-12-20T06:22:23;100294.38;;;7.21;100.00
60465;BME280;46314;52.392;9.758;2023-12-20T06:24:50;100294.50;;;7.11;100.00
60465;BME280;46314;52.392;9.758;2023-12-20T06:27:16;100298.06;;;7.11;100.00
60465;BME280;46314;52.392;9.758;2023-12-20T06:29:43;100295.19;;;7.27;100.00
60465;BME280;46314;52.392;9.758;2023-12-20T06:32:09;100289.94;;;6.91;100.00
60465;BME280;46314;52.392;9.758;2023-12-20T06:34:36;100288.00;;;7.26;100.00
60465;BME280;46314;52.392;9.758;2023-12-20T06:37:03;100287.69;;;7.32;100.00
60465;BME280;46314;52.392;9.758;2023-12-20T06:39:30;100290.63;;;7.07;100.00
60465;BME280;46314;52.392;9.758;2023-12-20T06:41:57;100290.97;;;7.00;100.00
60465;BME280;46314;52.392;9.758;2023-12-20T06:44:23;100291.50;;;7.07;100.00
60465;BME280;46314;52.392;9.758;2023-12-20T06:46:50;100292.47;;;7.51;100.00
60465;BME280;46314;52.392;9.758;2023-12-20T06:49:16;100277.84;;;7.21;100.00
60465;BME280;46314;52.392;9.758;2023-12-20T06:51:43;100281.34;;;6.53;100.00
60465;BME280;46314;52.392;9.758;2023-12-20T06:54:09;100281.75;;;6.75;100.00
60465;BME280;46314;52.392;9.758;2023-12-20T06:56:37;100279.94;;;7.00;100.00
60465;BME280;46314;52.392;9.758;2023-12-20T06:59:03;100282.66;;;6.66;100.00
60465;BME280;46314;52.392;9.758;2023-12-20T07:01:30;100277.13;;;6.66;100.00
60465;BME280;46314;52.392;9.758;2023-12-20T07:03:56;100289.75;;;6.77;100.00
60465;BME280;46314;52.392;9.758;2023-12-20T07:06:23;100277.94;;;6.16;100.00
60465;BME280;46314;52.392;9.758;2023-12-20T07:08:52;100275.84;;;6.53;100.00
60465;BME280;46314;52.392;9.758;2023-12-20T07:11:18;100276.06;;;6.61;100.00
60465;BME280;46314;52.392;9.758;2023-12-20T07:13:46;100274.28;;;6.81;100.00
60465;BME280;46314;52.392;9.758;2023-12-20T07:16:12;100283.97;;;6.73;100.00
60465;BME280;46314;52.392;9.758;2023-12-20T07:18:39;100270.59;;;6.56;100.00
60465;BME280;46314;52.392;9.758;2023-12-20T07:21:05;100264.78;;;6.58;100.00
60465;BME280;46314;52.392;9.758;2023-12-20T07:23:32;100256.63;;;6.82;100.00
60465;BME280;46314;52.392;9.758;2023-12-20T07:25:58;100268.38;;;6.98;100.00
60465;BME280;46314;52.392;9.758;2023-12-20T07:28:25;100280.56;;;6.92;100.00
60465;BME280;46314;52.392;9.758;2023-12-20T07:30:53;100281.75;;;6.75;100.00
60465;BME280;46314;52.392;9.758;2023-12-20T07:33:19;100275.06;;;6.87;100.00
60465;BME280;46314;52.392;9.758;2023-12-20T07:35:46;100270.88;;;6.94;100.00
60465;BME280;46314;52.392;9.758;2023-12-20T07:38:12;100264.25;;;6.95;100.00
60465;BME280;46314;52.392;9.758;2023-12-20T07:40:39;100275.50;;;7.04;100.00
60465;BME280;46314;52.392;9.758;2023-12-20T07:43:05;100266.13;;;7.00;100.00
60465;BME280;46314;52.392;9.758;2023-12-20T07:45:32;100263.84;;;6.78;100.00
60465;BME280;46314;52.392;9.758;2023-12-20T07:47:59;100268.63;;;7.01;100.00
60465;BME280;46314;52.392;9.758;2023-12-20T07:50:26;100262.34;;;6.91;100.00
60465;BME280;46314;52.392;9.758;2023-12-20T07:52:53;100285.47;;;6.50;100.00
60465;BME280;46314;52.392;9.758;2023-12-20T07:55:19;100280.66;;;6.76;100.00
60465;BME280;46314;52.392;9.758;2023-12-20T07:57:46;100267.84;;;6.56;100.00
60465;BME280;46314;52.392;9.758;2023-12-20T08:00:13;100258.88;;;6.75;100.00
60465;BME280;46314;52.392;9.758;2023-12-20T08:02:40;100251.53;;;6.65;100.00
60465;BME280;46314;52.392;9.758;2023-12-20T08:05:08;100258.22;;;6.49;100.00
60465;BME280;46314;52.392;9.758;2023-12-20T08:07:35;100264.47;;;6.59;100.00
60465;BME280;46314;52.392;9.758;2023-12-20T08:10:01;100269.72;;;7.06;100.00
60465;BME280;46314;52.392;9.758;2023-12-20T08:12:28;100268.97;;;6.45;100.00
60465;BME280;46314;52.392;9.758;2023-12-20T08:14:54;100262.81;;;7.03;100.00
60465;BME280;46314;52.392;9.758;2023-12-20T08:17:21;100257.13;;;6.89;100.00
60465;BME280;46314;52.392;9.758;2023-12-20T08:19:47;100248.50;;;6.61;100.00
60465;BME280;46314;52.392;9.758;2023-12-20T08:22:15;100254.25;;;7.05;100.00
60465;BME280;46314;52.392;9.758;2023-12-20T08:24:42;100252.16;;;7.26;100.00
60465;BME280;46314;52.392;9.758;2023-12-20T08:27:08;100256.66;;;7.16;100.00
60465;BME280;46314;52.392;9.758;2023-12-20T08:29:35;100268.88;;;6.66;100.00
60465;BME280;46314;52.392;9.758;2023-12-20T08:32:01;100249.50;;;7.45;100.00
60465;BME280;46314;52.392;9.758;2023-12-20T08:34:28;100247.00;;;7.48;100.00
60465;BME280;46314;52.392;9.758;2023-12-20T08:36:55;100233.13;;;7.24;100.00
60465;BME280;46314;52.392;9.758;2023-12-20T08:39:22;100230.28;;;7.34;100.00
60465;BME280;46314;52.392;9.758;2023-12-20T08:41:49;100232.81;;;7.60;100.00
60465;BME280;46314;52.392;9.758;2023-12-20T08:44:15;100224.34;;;7.51;100.00
60465;BME280;46314;52.392;9.758;2023-12-20T08:46:43;100222.94;;;7.78;100.00
60465;BME280;46314;52.392;9.758;2023-12-20T08:49:09;100221.28;;;7.24;100.00
60465;BME280;46314;52.392;9.758;2023-12-20T08:51:36;100219.78;;;7.36;100.00
60465;BME280;46314;52.392;9.758;2023-12-20T08:54:03;100224.88;;;7.53;100.00
60465;BME280;46314;52.392;9.758;2023-12-20T08:56:30;100217.44;;;7.49;100.00
60465;BME280;46314;52.392;9.758;2023-12-20T08:58:57;100223.44;;;7.56;100.00
60465;BME280;46314;52.392;9.758;2023-12-20T09:01:23;100208.84;;;7.80;100.00
60465;BME280;46314;52.392;9.758;2023-12-20T09:03:50;100206.59;;;7.57;100.00
60465;BME280;46314;52.392;9.758;2023-12-20T09:06:17;100200.22;;;7.33;100.00
60465;BME280;46314;52.392;9.758;2023-12-20T09:08:43;100197.22;;;7.58;100.00
60465;BME280;46314;52.392;9.758;2023-12-20T09:11:10;100199.34;;;8.10;100.00
60465;BME280;46314;52.392;9.758;2023-12-20T09:13:38;100192.44;;;7.88;100.00
60465;BME280;46314;52.392;9.758;2023-12-20T09:16:05;100182.50;;;7.63;100.00
60465;BME280;46314;52.392;9.758;2023-12-20T09:18:32;100188.03;;;7.39;100.00
60465;BME280;46314;52.392;9.758;2023-12-20T09:20:58;100182.66;;;7.53;100.00
60465;BME280;46314;52.392;9.758;2023-12-20T09:23:25;100176.28;;;7.76;100.00
60465;BME280;46314;52.392;9.758;2023-12-20T09:25:51;100183.81;;;7.47;100.00
60465;BME280;46314;52.392;9.758;2023-12-20T09:28:22;100179.97;;;7.91;100.00
60465;BME280;46314;52.392;9.758;2023-12-20T09:30:50;100194.03;;;7.46;100.00
60465;BME280;46314;52.392;9.758;2023-12-20T09:33:16;100174.78;;;7.65;100.00
60465;BME280;46314;52.392;9.758;2023-12-20T09:35:43;100178.22;;;7.28;100.00
60465;BME280;46314;52.392;9.758;2023-12-20T09:38:10;100176.88;;;7.73;100.00
60465;BME280;46314;52.392;9.758;2023-12-20T09:40:38;100164.44;;;7.76;100.00
60465;BME280;46314;52.392;9.758;2023-12-20T09:43:11;100178.22;;;7.52;100.00
60465;BME280;46314;52.392;9.758;2023-12-20T09:45:38;100170.13;;;7.85;100.00
60465;BME280;46314;52.392;9.758;2023-12-20T09:48:07;100181.34;;;7.93;100.00
60465;BME280;46314;52.392;9.758;2023-12-20T09:50:33;100167.38;;;7.85;100.00
60465;BME280;46314;52.392;9.758;2023-12-20T09:53:02;100174.66;;;8.19;100.00
60465;BME280;46314;52.392;9.758;2023-12-20T09:55:30;100169.78;;;8.10;100.00
60465;BME280;46314;52.392;9.758;2023-12-20T09:57:59;100166.50;;;8.08;100.00
60465;BME280;46314;52.392;9.758;2023-12-20T10:00:26;100151.88;;;8.27;100.00
60465;BME280;46314;52.392;9.758;2023-12-20T10:02:56;100155.69;;;8.31;100.00
60465;BME280;46314;52.392;9.758;2023-12-20T10:05:28;100155.03;;;8.39;100.00
60465;BME280;46314;52.392;9.758;2023-12-20T10:07:55;100147.53;;;8.02;100.00
60465;BME280;46314;52.392;9.758;2023-12-20T10:10:22;100141.44;;;8.24;100.00
60465;BME280;46314;52.392;9.758;2023-12-20T10:13:04;100165.84;;;8.17;100.00
60465;BME280;46314;52.392;9.758;2023-12-20T10:15:32;100156.19;;;7.95;100.00
60465;BME280;46314;52.392;9.758;2023-12-20T10:17:59;100138.91;;;8.46;100.00
60465;BME280;46314;52.392;9.758;2023-12-20T10:20:29;100143.00;;;8.11;100.00
60465;BME280;46314;52.392;9.758;2023-12-20T10:22:57;100141.72;;;8.41;100.00
60465;BME280;46314;52.392;9.758;2023-12-20T10:25:24;100138.81;;;8.32;100.00
60465;BME280;46314;52.392;9.758;2023-12-20T10:28:09;100147.47;;;8.07;100.00
60465;BME280;46314;52.392;9.758;2023-12-20T10:30:36;100133.38;;;8.46;100.00
60465;BME280;46314;52.392;9.758;2023-12-20T10:33:03;100135.59;;;8.06;100.00
60465;BME280;46314;52.392;9.758;2023-12-20T10:35:32;100127.00;;;8.08;100.00
60465;BME280;46314;52.392;9.758;2023-12-20T10:38:03;100130.06;;;8.06;100.00
60465;BME280;46314;52.392;9.758;2023-12-20T10:40:30;100135.81;;;8.10;100.00
60465;BME280;46314;52.392;9.758;2023-12-20T10:42:58;100135.63;;;8.44;100.00
60465;BME280;46314;52.392;9.758;2023-12-20T10:45:27;100132.91;;;8.01;100.00
60465;BME280;46314;52.392;9.758;2023-12-20T10:47:53;100116.31;;;7.58;100.00
60465;BME280;46314;52.392;9.758;2023-12-20T10:50:20;100129.38;;;7.76;100.00
60465;BME280;46314;52.392;9.758;2023-12-20T10:52:49;100136.38;;;7.88;100.00
60465;BME280;46314;52.392;9.758;2023-12-20T10:55:16;100119.75;;;7.74;100.00
60465;BME280;46314;52.392;9.758;2023-12-20T10:57:44;100136.00;;;7.75;100.00
60465;BME280;46314;52.392;9.758;2023-12-20T11:00:15;100108.06;;;8.01;100.00
60465;BME280;46314;52.392;9.758;2023-12-20T11:02:42;100116.69;;;7.94;100.00
60465;BME280;46314;52.392;9.758;2023-12-20T11:05:16;100113.94;;;8.13;100.00
60465;BME280;46314;52.392;9.758;2023-12-20T11:07:51;100108.50;;;8.79;100.00
60465;BME280;46314;52.392;9.758;2023-12-20T11:10:23;100118.13;;;8.30;100.00
60465;BME280;46314;52.392;9.758;2023-12-20T11:12:54;100111.75;;;7.72;100.00
60465;BME280;46314;52.392;9.758;2023-12-20T11:15:25;100117.66;;;8.23;100.00
60465;BME280;46314;52.392;9.758;2023-12-20T11:17:57;100118.16;;;7.68;100.00
60465;BME280;46314;52.392;9.758;2023-12-20T11:20:24;100111.06;;;7.62;100.00
60465;BME280;46314;52.392;9.758;2023-12-20T11:23:02;100103.03;;;7.17;100.00
60465;BME280;46314;52.392;9.758;2023-12-20T11:25:29;100103.47;;;7.72;100.00
60465;BME280;46314;52.392;9.758;2023-12-20T11:28:08;100099.59;;;7.73;100.00
60465;BME280;46314;52.392;9.758;2023-12-20T11:30:42;100104.38;;;7.44;100.00
60465;BME280;46314;52.392;9.758;2023-12-20T11:33:12;100104.34;;;7.68;100.00
60465;BME280;46314;52.392;9.758;2023-12-20T11:35:39;100109.13;;;7.38;100.00
60465;BME280;46314;52.392;9.758;2023-12-20T11:38:08;100116.63;;;7.08;100.00
60465;BME280;46314;52.392;9.758;2023-12-20T11:40:35;100138.28;;;6.91;100.00
60465;BME280;46314;52.392;9.758;2023-12-20T11:43:03;100132.97;;;6.99;100.00
60465;BME280;46314;52.392;9.758;2023-12-20T11:45:30;100144.47;;;7.07;100.00
60465;BME280;46314;52.392;9.758;2023-12-20T11:47:57;100154.59;;;6.87;100.00
60465;BME280;46314;52.392;9.758;2023-12-20T11:50:24;100150.22;;;6.86;100.00
60465;BME280;46314;52.392;9.758;2023-12-20T11:52:52;100147.75;;;6.85;100.00
60465;BME280;46314;52.392;9.758;2023-12-20T11:55:20;100141.38;;;6.84;100.00
60465;BME280;46314;52.392;9.758;2023-12-20T11:57:47;100146.44;;;6.72;100.00
60465;BME280;46314;52.392;9.758;2023-12-20T12:00:15;100145.78;;;6.85;100.00
60465;BME280;46314;52.392;9.758;2023-12-20T12:02:42;100137.34;;;6.76;100.00
60465;BME280;46314;52.392;9.758;2023-12-20T12:05:11;100132.09;;;6.75;100.00
60465;BME280;46314;52.392;9.758;2023-12-20T12:07:38;100121.06;;;6.46;100.00
60465;BME280;46314;52.392;9.758;2023-12-20T12:10:06;100129.19;;;6.27;100.00
60465;BME280;46314;52.392;9.758;2023-12-20T12:12:34;100123.84;;;6.75;100.00
60465;BME280;46314;52.392;9.758;2023-12-20T12:15:00;100120.22;;;6.45;100.00
60465;BME280;46314;52.392;9.758;2023-12-20T12:17:27;100110.09;;;6.70;100.00
60465;BME280;46314;52.392;9.758;2023-12-20T12:20:01;100104.53;;;7.04;100.00
60465;BME280;46314;52.392;9.758;2023-12-20T12:22:28;100114.47;;;6.41;100.00
60465;BME280;46314;52.392;9.758;2023-12-20T12:24:59;100123.84;;;6.75;100.00
60465;BME280;46314;52.392;9.758;2023-12-20T12:27:27;100120.47;;;6.83;100.00
60465;BME280;46314;52.392;9.758;2023-12-20T12:30:02;100105.19;;;7.20;100.00
60465;BME280;46314;52.392;9.758;2023-12-20T12:32:29;100103.91;;;6.83;100.00
60465;BME280;46314;52.392;9.758;2023-12-20T12:34:56;100115.09;;;6.97;100.00
60465;BME280;46314;52.392;9.758;2023-12-20T12:37:22;100106.34;;;6.90;100.00
60465;BME280;46314;52.392;9.758;2023-12-20T12:39:49;100105.34;;;6.46;100.00
60465;BME280;46314;52.392;9.758;2023-12-20T12:42:15;100103.13;;;6.48;100.00
60465;BME280;46314;52.392;9.758;2023-12-20T12:44:42;100106.91;;;6.57;100.00
60465;BME280;46314;52.392;9.758;2023-12-20T12:47:10;100108.84;;;6.57;100.00
60465;BME280;46314;52.392;9.758;2023-12-20T12:49:36;100109.97;;;6.51;100.00